• Join FlightAware (Why Join?)
  • Login
  • US Flag 
03:52PM EDT


 

Airport Tracker/Info


-or-


 

Live Flight TrackerFlight Track Log ✈ N245SP ✈ 18-May-2012 ✈ KBUR - KBFI

Flight Track Log - Related Links

Times and Time Zones

All times are in EDT time to prevent confusion due to time zone crossing. See the N245SP flight status page for this flight to view local times or setup timezone preferences in your user account.

Time Position Orientation Groundspeed Altitude Reporting Facility
EDT Latitude Longitude Course Direction KTS MPH feet Rate Location/Type
01:43AM 34.1756 -118.3583 321° Northwest 187 215 2,200  Level Los Angeles Center
01:48AM 34.4031 -118.5783 329° Northwest 240 276 13,800 2,280 Climbing Los Angeles Center
01:49AM 34.4689 -118.6258 329° Northwest 261 300 16,100 2,280 Climbing Los Angeles Center
01:50AM 34.5325 -118.6731 331° Northwest 267 307 18,400 2,220 Climbing Los Angeles Center
01:51AM 34.5983 -118.7181 329° Northwest 267 307 20,600 1,860 Climbing Los Angeles Center
01:52AM 34.6661 -118.7681 328° Northwest 272 313 22,200 1,620 Climbing Los Angeles Center
01:53AM 34.7319 -118.8181 330° Northwest 277 319 23,900 1,680 Climbing Los Angeles Center
01:54AM 34.8039 -118.8686 345° North 277 319 25,600 1,680 Climbing Los Angeles Center
01:55AM 34.8889 -118.8967 352° North 282 325 27,300 1,680 Climbing Los Angeles Center
01:56AM 34.9678 -118.9094 346° North 282 325 29,000 1,680 Climbing Los Angeles Center
01:57AM 35.0425 -118.9322 347° North 282 325 30,700 1,500 Climbing Los Angeles Center
01:58AM 35.1150 -118.9525 347° North 282 325 32,100 1,200 Climbing Los Angeles Center
01:59AM 35.1936 -118.9756 347° North 282 325 33,100 1,020 Climbing Los Angeles Center
02:01AM 35.3456 -119.0189 345° North 301 346 34,900 1,020 Climbing Oakland Center
02:02AM 35.4294 -119.0472 348° North 306 352 35,900 960 Climbing Oakland Center
02:03AM 35.5133 -119.0683 346° North 306 352 36,900 960 Climbing Oakland Center
02:04AM 35.5992 -119.0942 347° North 306 352 37,900 960 Climbing Oakland Center
02:05AM 35.6850 -119.1178 346° North 306 352 38,900 720 Climbing Oakland Center
02:06AM 35.7689 -119.1439 346° North 306 352 39,400 480 Climbing Oakland Center
02:07AM 35.8569 -119.1700 345° North 306 352 39,900 300 Climbing Oakland Center
02:08AM 35.9450 -119.1986 347° North 317 365 40,000  Climbing Oakland Center
02:09AM 36.0372 -119.2247 345° North 323 372 40,000  Level Oakland Center
02:10AM 36.1336 -119.2561 348° North 340 391 40,000  Level Oakland Center
02:11AM 36.2300 -119.2822 346° North 347 399 40,000  Level Oakland Center
02:12AM 36.3306 -119.3136 347° North 357 411 40,000  Level Oakland Center
02:13AM 36.4289 -119.3422 346° North 357 411 40,000  Level Oakland Center
02:14AM 36.5294 -119.3739 347° North 357 411 40,000  Level Oakland Center
02:15AM 36.6281 -119.4028 346° North 357 411 40,000  Level Oakland Center
02:16AM 36.7244 -119.4319 346° North 357 411 40,000  Level Oakland Center
02:17AM 36.8269 -119.4636 347° North 357 411 40,000  Level Oakland Center
02:18AM 36.9253 -119.4928 346° North 362 417 40,000  Level Oakland Center
02:19AM 37.0258 -119.5244 346° North 362 417 40,000  Level Oakland Center
02:20AM 37.1264 -119.5564 345° North 362 417 40,000  Level Oakland Center
02:21AM 37.2247 -119.5886 347° North 362 417 40,000  Level Oakland Center
02:22AM 37.3253 -119.6181 348° North 367 422 40,000  Level Oakland Center
02:23AM 37.4278 -119.6450 346° North 367 422 40,000  Level Oakland Center
02:24AM 37.5283 -119.6772 347° North 367 422 40,000  Level Oakland Center
02:25AM 37.6331 -119.7069 347° North 377 434 40,000  Level Oakland Center
02:26AM 37.7333 -119.7367 346° North 377 434 40,000  Level Oakland Center
02:27AM 37.8339 -119.7692 346° North 372 428 40,000  Level Oakland Center
02:28AM 37.9342 -119.8017 346° North 372 428 40,000  Level Oakland Center
02:29AM 38.0369 -119.8344 347° North 367 422 40,000  Level Oakland Center
02:30AM 38.1372 -119.8644 346° North 372 428 40,000  Level Oakland Center
02:31AM 38.2397 -119.8972 346° North 377 434 40,000  Level Oakland Center
02:32AM 38.3422 -119.9303 346° North 377 434 40,000  Level Oakland Center
02:33AM 38.4406 -119.9606 346° North 377 434 40,000  Level Oakland Center
02:34AM 38.5389 -119.9911 345° North 377 434 40,000  Level Oakland Center
02:35AM 38.6372 -120.0244 345° North 372 428 40,000  Level Oakland Center
02:36AM 38.7333 -120.0578 346° North 366 421 40,000  Level Oakland Center
02:37AM 38.8294 -120.0883 345° North 360 414 40,000  Level Oakland Center
02:38AM 38.9278 -120.1219 346° North 360 414 40,000 480 Level Oakland Center
02:39AM 39.0239 -120.1528 345° North 360 414 41,000 900 Climbing Oakland Center
02:40AM 39.1139 -120.1839 346° North 348 400 41,800 600 Climbing Oakland Center
02:41AM 39.2036 -120.2125 347° North 341 392 42,300 480 Climbing Oakland Center
02:42AM 39.2956 -120.2408 345° North 341 392 42,800 300 Climbing Oakland Center
02:43AM 39.3853 -120.2722 346° North 341 392 43,000 60 Climbing Oakland Center
02:44AM 39.4753 -120.3008 344° North 341 392 43,000  Level Oakland Center
02:45AM 39.5692 -120.3350 347° North 341 392 43,000  Level Oakland Center
02:46AM 39.6653 -120.3639 345° North 341 392 43,000  Level Oakland Center
02:47AM 39.7633 -120.3981 345° North 341 392 43,000  Level Oakland Center
02:48AM 39.8617 -120.4325 344° North 352 405 43,000  Level Oakland Center
02:49AM 39.9619 -120.4697 350° North 358 412 43,000  Level Oakland Center
02:50AM 40.0453 -120.4881 344° North 348 400 43,000  Level Oakland Center
02:51AM 40.1456 -120.5253 346° North 348 400 43,000  Level Oakland Center
02:52AM 40.2436 -120.5572 346° North 354 407 43,000  Level Oakland Center
02:53AM 40.4342 -120.6211 345° North 370 426 43,000  Level Seattle Center
02:54AM 40.5339 -120.6558 346° North 371 427 43,000  Level Seattle Center
02:55AM 40.6342 -120.6894 345° North 372 428 43,000  Level Seattle Center
02:56AM 40.7342 -120.7247 346° North 372 428 43,000  Level Seattle Center
02:57AM 40.8353 -120.7592 345° North 374 430 43,000  Level Seattle Center
02:58AM 40.9358 -120.7939 345° North 374 430 43,000  Level Seattle Center
02:59AM 41.0344 -120.8286 345° North 370 426 43,000  Level Seattle Center
03:00AM 41.1344 -120.8639 345° North 370 426 43,000  Level Seattle Center
03:01AM 41.2364 -120.8994 345° North 376 433 43,000  Level Seattle Center
03:03AM 41.3517 -120.9394 345° North 376 433 43,000  Level Seattle Center
03:04AM 41.4392 -120.9703 345° North 378 435 43,000  Level Seattle Center
03:05AM 41.5403 -121.0072 345° North 378 435 43,000  Level Seattle Center
03:06AM 41.6414 -121.0422 345° North 377 434 43,000  Level Seattle Center
03:07AM 41.7419 -121.0783 345° North 376 433 43,000  Level Seattle Center
03:08AM 41.8425 -121.1133 345° North 375 432 43,000  Level Seattle Center
03:09AM 41.9444 -121.1506 346° North 378 435 43,000  Level Seattle Center
03:10AM 42.0447 -121.1844 345° North 375 432 43,000  Level Seattle Center
03:11AM 42.1472 -121.2208 345° North 380 437 43,000  Level Seattle Center
03:12AM 42.2503 -121.2583 345° North 383 441 43,000  Level Seattle Center
03:13AM 42.3539 -121.2961 345° North 387 445 43,000  Level Seattle Center
03:14AM 42.4767 -121.3400 345° North 385 443 43,000  Level Seattle Center
03:15AM 42.5786 -121.3758 345° North 381 438 43,000  Level Seattle Center
03:16AM 42.6806 -121.4133 345° North 381 438 43,000  Level Seattle Center
03:17AM 42.7836 -121.4517 345° North 385 443 43,000  Level Seattle Center
03:18AM 42.8869 -121.4889 346° North 385 443 43,000  Level Seattle Center
03:19AM 42.9894 -121.5250 344° North 382 440 43,000  Level Seattle Center
03:20AM 43.0925 -121.5650 344° North 385 443 43,000  Level Seattle Center
03:21AM 43.1953 -121.6044 345° North 385 443 43,000  Level Seattle Center
03:22AM 43.2983 -121.6425 345° North 384 442 43,000  Level Seattle Center
03:23AM 43.4008 -121.6806 345° North 383 441 43,000  Level Seattle Center
03:24AM 43.5025 -121.7181 345° North 380 437 43,000  Level Seattle Center
03:25AM 43.6044 -121.7567 345° North 380 437 43,000  Level Seattle Center
03:26AM 43.7064 -121.7956 345° North 380 437 43,000  Level Seattle Center
03:27AM 43.8089 -121.8328 345° North 381 438 43,000  Level Seattle Center
03:28AM 43.9056 -121.8681 345° North 382 440 43,000  Level Seattle Center
03:29AM 44.0097 -121.9061 345° North 381 438 43,000  Level Seattle Center
03:30AM 44.1122 -121.9447 344° North 382 440 43,000  Level Seattle Center
03:31AM 44.2142 -121.9847 345° North 381 438 43,000  Level Seattle Center
03:32AM 44.3156 -122.0239 345° North 379 436 43,000  Level Seattle Center
03:33AM 44.4183 -122.0636 345° North 382 440 43,000  Level Seattle Center
03:34AM 44.5194 -122.1022 344° North 380 437 43,000  Level Seattle Center
03:35AM 44.6200 -122.1419 345° North 378 435 43,000  Level Seattle Center
03:36AM 44.7208 -122.1811 344° North 377 434 43,000  Level Seattle Center
03:37AM 44.8211 -122.2208 345° North 377 434 43,000  Level Seattle Center
03:38AM 44.9231 -122.2594 344° North 377 434 43,000  Level Seattle Center
03:39AM 45.0242 -122.3006 344° North 378 435 43,000  Level Seattle Center
03:40AM 45.1250 -122.3425 346° North 379 436 43,000  Level Seattle Center
03:41AM 45.2242 -122.3786 344° North 374 430 43,000  Level Seattle Center
03:42AM 45.3242 -122.4194 344° North 375 432 43,000  Level Seattle Center
03:43AM 45.4244 -122.4592 344° North 376 433 43,000  Level Seattle Center
03:44AM 45.5258 -122.4997 344° North 378 435 43,000  Level Seattle Center
03:45AM 45.6269 -122.5406 345° North 379 436 43,000 -900 Level Seattle Center
03:46AM 45.7281 -122.5803 349° North 379 436 41,200 -1,860 Descending Seattle Center
03:47AM 45.8300 -122.6100 351° North 376 433 39,300 -1,980 Descending Seattle Center
03:48AM 45.9300 -122.6328 349° North 367 422 37,300 -2,220 Descending Seattle Center
03:49AM 46.0467 -122.6667 350° North 360 414 34,900 -2,220 Descending Seattle Center
03:50AM 46.1364 -122.6894 349° North 343 395 32,900 -1,740 Descending Seattle Center
03:51AM 46.2242 -122.7133 351° North 331 381 31,400 -1,860 Descending Seattle Center
03:52AM 46.3211 -122.7367 351° North 359 413 29,200 -2,100 Descending Seattle Center
03:53AM 46.4217 -122.7608 350° North 373 429 27,300 -1,920 Descending Seattle Center
03:54AM 46.5222 -122.7875 350° North 372 428 25,400 -1,920 Descending Seattle Center
03:55AM 46.6208 -122.8136 341° North 366 421 23,500 -1,920 Descending Seattle Center
03:56AM 46.7097 -122.8581 342° North 347 399 21,600 -1,860 Descending Seattle Center
03:57AM 46.7986 -122.8994 341° North 343 395 19,800 -1,800 Descending Seattle Center
03:58AM 46.8858 -122.9444 340° North 337 388 18,000 -1,740 Descending Seattle Center
03:59AM 46.9706 -122.9894 North 330 380 16,400 -1,740 Descending Seattle Center
04:00AM 47.0586 -122.9697 11° North 322 371 14,600 -1,800 Descending Seattle Center
04:01AM 47.1447 -122.9461 18° North 317 365 12,800 -1,800 Descending Seattle Center
04:02AM 47.2264 -122.9072 31° Northeast 315 362 11,000 -1,740 Descending Seattle Center
04:03AM 47.2997 -122.8431 28° Northeast 307 353 9,400 -1,560 Descending Seattle Center
04:04AM 47.3708 -122.7861 27° Northeast 296 341 7,900 -1,500 Descending Seattle Center
04:05AM 47.4406 -122.7342 25° Northeast 287 330 6,400 -1,260 Descending Seattle Center
04:06AM 47.5078 -122.6872 35° Northeast 273 314 5,400 -1,140 Descending Seattle Center
04:07AM 47.5783 -122.6142 58° Northeast 275 316 4,200 -1,140 Descending Seattle Center
04:08AM 47.6144 -122.5275 85° East 250 288 3,200 -1,020 Descending Seattle Center
04:09AM 47.6197 -122.4369 108° East 223 257 2,200 -840 Descending Seattle Center
04:10AM 47.6050 -122.3681 151° Southeast 184 212 1,600 -720 Descending Seattle Center
04:11AM 47.5678 -122.3369 147° Southeast 152 175 800 -780 Descending Seattle Center
04:12AM 47.5400 -122.3106 147° Southeast 138 159 100 -720 Descending Seattle Center